createdAt,value
2019-05-20T00:00:46.250Z,13.90
2019-05-20T00:03:22.215Z,13.90
2019-05-20T00:05:57.676Z,14.00
2019-05-20T00:08:33.253Z,13.90
2019-05-20T00:11:08.761Z,13.90
2019-05-20T00:13:44.248Z,14.00
2019-05-20T00:16:19.667Z,14.00
2019-05-20T00:18:56.039Z,14.00
2019-05-20T00:21:31.553Z,13.90
2019-05-20T00:24:06.917Z,13.90
2019-05-20T00:26:42.468Z,13.90
2019-05-20T00:29:17.827Z,13.90
2019-05-20T00:31:53.368Z,13.80
2019-05-20T00:34:35.026Z,13.80
2019-05-20T00:37:05.963Z,13.80
2019-05-20T00:39:41.374Z,13.80
2019-05-20T00:42:17.091Z,13.80
2019-05-20T00:44:52.504Z,13.70
2019-05-20T00:47:28.023Z,13.80
2019-05-20T00:50:03.484Z,13.80
2019-05-20T00:52:39.129Z,13.70
2019-05-20T00:55:29.155Z,13.80
2019-05-20T00:58:04.597Z,13.80
2019-05-20T01:00:40.293Z,13.70
2019-05-20T01:03:15.705Z,13.70
2019-05-20T01:05:51.341Z,13.80
2019-05-20T01:08:26.947Z,13.80
2019-05-20T01:11:02.299Z,13.70
2019-05-20T01:13:37.750Z,13.70
2019-05-20T01:16:13.291Z,13.70
2019-05-20T01:18:48.676Z,13.80
2019-05-20T01:21:24.145Z,13.80
2019-05-20T01:23:59.734Z,13.80
2019-05-20T01:26:35.137Z,13.70
2019-05-20T01:29:10.547Z,13.70
2019-05-20T01:31:45.834Z,13.70
2019-05-20T01:34:21.244Z,13.70
2019-05-20T01:36:56.643Z,13.70
2019-05-20T01:39:32.167Z,13.70
2019-05-20T01:42:07.550Z,13.70
2019-05-20T01:44:43.338Z,13.70
2019-05-20T01:47:18.732Z,13.70
2019-05-20T01:49:54.485Z,13.70
2019-05-20T01:52:29.863Z,13.70
2019-05-20T01:55:06.055Z,13.70
2019-05-20T01:57:44.399Z,13.70
2019-05-20T02:00:20.002Z,13.70
2019-05-20T02:02:55.592Z,13.60
2019-05-20T02:05:31.019Z,13.60
2019-05-20T02:08:06.402Z,13.60
2019-05-20T02:10:41.903Z,13.60
2019-05-20T02:13:17.251Z,13.60
2019-05-20T02:16:02.744Z,13.60
2019-05-20T02:18:38.133Z,13.60
2019-05-20T02:21:13.693Z,13.60
2019-05-20T02:23:49.027Z,13.50
2019-05-20T02:26:24.561Z,13.50
2019-05-20T02:28:59.949Z,13.40
2019-05-20T02:31:35.745Z,13.50
2019-05-20T02:34:11.142Z,13.50
2019-05-20T02:36:46.642Z,13.50
2019-05-20T02:39:26.300Z,13.50
2019-05-20T02:41:59.250Z,13.50
2019-05-20T02:44:34.630Z,13.50
2019-05-20T02:47:10.072Z,13.40
2019-05-20T02:49:45.360Z,13.40
2019-05-20T02:52:20.787Z,13.40
2019-05-20T02:54:56.174Z,13.40
2019-05-20T02:57:31.755Z,13.40
2019-05-20T03:00:07.372Z,13.40
2019-05-20T03:02:42.794Z,13.40
2019-05-20T03:05:18.145Z,13.40
2019-05-20T03:07:53.576Z,13.40
2019-05-20T03:10:28.985Z,13.30
2019-05-20T03:13:05.385Z,13.40
2019-05-20T03:15:41.416Z,13.30
2019-05-20T03:18:16.846Z,13.30
2019-05-20T03:20:52.186Z,13.30
2019-05-20T03:23:27.606Z,13.20
2019-05-20T03:26:03.174Z,13.20
2019-05-20T03:28:38.587Z,13.20
2019-05-20T03:31:13.968Z,13.20
2019-05-20T03:33:49.399Z,13.20
2019-05-20T03:36:24.759Z,13.20
2019-05-20T03:39:00.169Z,13.20
2019-05-20T03:41:35.548Z,13.10
2019-05-20T03:44:10.990Z,13.10
2019-05-20T03:46:46.364Z,13.10
2019-05-20T03:49:21.882Z,13.10
2019-05-20T03:51:57.265Z,13.10
2019-05-20T03:54:32.689Z,13.10
2019-05-20T03:57:08.102Z,13.10
2019-05-20T03:59:43.524Z,13.10
2019-05-20T04:02:18.894Z,13.10
2019-05-20T04:05:02.398Z,13.00
2019-05-20T04:07:31.438Z,13.00
2019-05-20T04:10:08.220Z,13.00
2019-05-20T04:12:43.548Z,13.00
2019-05-20T04:15:18.924Z,13.10
2019-05-20T04:17:54.228Z,13.10
2019-05-20T04:20:29.600Z,13.10
2019-05-20T04:23:05.095Z,13.00
2019-05-20T04:25:40.566Z,13.10
2019-05-20T04:28:15.957Z,13.10
2019-05-20T04:30:51.444Z,13.10
2019-05-20T04:33:26.995Z,13.00
2019-05-20T04:36:02.418Z,12.90
2019-05-20T04:38:38.180Z,12.90
2019-05-20T04:41:13.609Z,12.80
2019-05-20T04:43:49.117Z,12.90
2019-05-20T04:46:24.535Z,13.00
2019-05-20T04:48:59.933Z,13.00
2019-05-20T04:51:35.428Z,13.00
2019-05-20T04:54:10.837Z,13.00
2019-05-20T04:56:46.515Z,13.00
2019-05-20T04:59:21.926Z,13.00
2019-05-20T05:01:57.245Z,13.00
2019-05-20T05:04:32.717Z,13.10
2019-05-20T05:07:08.179Z,13.10
2019-05-20T05:09:43.659Z,13.10
2019-05-20T05:12:19.125Z,13.10
2019-05-20T05:14:54.835Z,13.10
2019-05-20T05:17:30.230Z,13.10
2019-05-20T05:20:06.003Z,13.10
2019-05-20T05:22:41.417Z,13.10
2019-05-20T05:25:16.871Z,13.10
2019-05-20T05:27:52.329Z,13.10
2019-05-20T05:30:27.719Z,13.20
2019-05-20T05:33:03.197Z,13.10
2019-05-20T05:35:52.389Z,13.10
2019-05-20T05:38:15.688Z,13.10
2019-05-20T05:40:51.188Z,13.10
2019-05-20T05:43:26.638Z,13.20
2019-05-20T05:46:04.561Z,13.20
2019-05-20T05:48:39.975Z,13.20
2019-05-20T05:51:15.350Z,13.30
2019-05-20T05:53:50.710Z,13.30
2019-05-20T05:56:26.178Z,13.30
2019-05-20T05:59:01.871Z,13.30
2019-05-20T06:01:37.307Z,13.40
2019-05-20T06:04:12.735Z,13.40
2019-05-20T06:06:48.218Z,13.40
2019-05-20T06:09:23.643Z,13.50
2019-05-20T06:11:59.176Z,13.50
2019-05-20T06:14:34.616Z,13.50
2019-05-20T06:17:10.261Z,13.50
2019-05-20T06:19:45.788Z,13.50
2019-05-20T06:22:21.195Z,13.50
2019-05-20T06:24:58.651Z,13.60
2019-05-20T06:27:34.102Z,13.60
2019-05-20T06:30:10.885Z,13.60
2019-05-20T06:32:47.325Z,13.60
2019-05-20T06:35:22.735Z,13.60
2019-05-20T06:38:03.372Z,13.70
2019-05-20T06:40:38.764Z,13.70
2019-05-20T06:43:14.174Z,13.80
2019-05-20T06:45:49.679Z,13.80
2019-05-20T06:48:25.039Z,13.80
2019-05-20T06:51:00.455Z,13.70
2019-05-20T06:53:35.931Z,13.70
2019-05-20T06:56:11.364Z,13.70
2019-05-20T06:58:48.437Z,13.90
2019-05-20T07:01:24.206Z,13.90
2019-05-20T07:03:59.689Z,14.00
2019-05-20T07:06:45.786Z,14.00
2019-05-20T07:09:12.531Z,14.10
2019-05-20T07:11:52.935Z,14.10
2019-05-20T07:14:25.207Z,14.10
2019-05-20T07:17:04.871Z,14.10
2019-05-20T07:19:40.472Z,14.20
2019-05-20T07:22:15.939Z,14.10
2019-05-20T07:24:51.487Z,14.20
2019-05-20T07:27:26.934Z,14.20
2019-05-20T07:30:02.459Z,14.20
2019-05-20T07:32:38.484Z,14.20
2019-05-20T07:35:28.755Z,14.10
2019-05-20T07:37:51.086Z,14.00
2019-05-20T07:40:35.743Z,14.10
2019-05-20T07:43:11.327Z,14.10
2019-05-20T07:45:47.173Z,14.20
2019-05-20T07:48:22.745Z,14.00
2019-05-20T07:50:58.715Z,14.00
2019-05-20T07:53:35.135Z,14.00
2019-05-20T07:56:14.328Z,14.00
2019-05-20T07:58:52.831Z,14.00
2019-05-20T08:01:28.241Z,14.00
2019-05-20T08:04:03.675Z,14.00
2019-05-20T08:06:39.028Z,14.00
2019-05-20T08:09:14.409Z,14.00
2019-05-20T08:11:50.007Z,14.10
2019-05-20T08:14:25.495Z,14.10
2019-05-20T08:17:00.880Z,14.00
2019-05-20T08:19:36.479Z,14.00
2019-05-20T08:22:12.021Z,14.00
2019-05-20T08:24:47.593Z,14.00
2019-05-20T08:27:22.938Z,14.10
2019-05-20T08:29:58.444Z,14.20
2019-05-20T08:32:33.805Z,14.20
2019-05-20T08:35:09.283Z,14.20
2019-05-20T08:37:46.109Z,14.30
2019-05-20T08:40:21.928Z,14.20
2019-05-20T08:42:57.373Z,14.10
2019-05-20T08:45:33.093Z,14.10
2019-05-20T08:48:08.482Z,14.00
2019-05-20T08:50:43.986Z,14.20
2019-05-20T08:53:19.379Z,14.20
2019-05-20T08:55:59.346Z,14.40
2019-05-20T08:58:37.700Z,14.50
2019-05-20T09:01:13.230Z,14.60
2019-05-20T09:03:48.615Z,14.70
2019-05-20T09:06:24.327Z,14.70
2019-05-20T09:08:59.747Z,14.70
2019-05-20T09:11:35.231Z,14.70
2019-05-20T09:14:10.636Z,14.70
2019-05-20T09:16:46.206Z,14.70
2019-05-20T09:19:21.659Z,14.70
2019-05-20T09:21:57.039Z,14.60
2019-05-20T09:24:32.762Z,14.70
2019-05-20T09:27:08.185Z,14.70
2019-05-20T09:29:43.745Z,14.50
2019-05-20T09:32:19.300Z,14.40
2019-05-20T09:34:55.067Z,14.30
2019-05-20T09:37:31.551Z,14.30
2019-05-20T09:40:07.390Z,14.30
2019-05-20T09:42:44.428Z,14.20
2019-05-20T09:45:19.789Z,14.20
2019-05-20T09:47:55.329Z,14.10
2019-05-20T09:50:30.823Z,14.10
2019-05-20T09:53:07.522Z,14.10
2019-05-20T09:55:43.411Z,14.10
2019-05-20T09:58:18.981Z,14.10
2019-05-20T10:00:54.407Z,14.20
2019-05-20T10:03:29.907Z,14.10
2019-05-20T10:06:09.394Z,14.10
2019-05-20T10:08:46.595Z,14.10
2019-05-20T10:11:21.960Z,14.20
2019-05-20T10:13:58.528Z,14.20
2019-05-20T10:16:33.957Z,14.20
2019-05-20T10:19:11.745Z,14.20
2019-05-20T10:21:47.145Z,14.20
2019-05-20T10:24:22.546Z,14.20
2019-05-20T10:26:58.088Z,14.20
2019-05-20T10:29:33.427Z,14.30
2019-05-20T10:32:09.111Z,14.30
2019-05-20T10:34:44.558Z,14.40
2019-05-20T10:37:20.111Z,14.50
2019-05-20T10:39:55.563Z,14.50
2019-05-20T10:42:30.827Z,14.40
2019-05-20T10:45:07.267Z,14.50
2019-05-20T10:47:42.681Z,14.50
2019-05-20T10:50:19.806Z,14.50
2019-05-20T10:52:55.328Z,14.50
2019-05-20T10:55:31.895Z,14.40
2019-05-20T10:58:10.181Z,14.50
2019-05-20T11:01:01.100Z,14.40
2019-05-20T11:03:22.749Z,14.50
2019-05-20T11:05:59.278Z,14.70
2019-05-20T11:08:35.651Z,14.70
2019-05-20T11:11:14.129Z,14.60
2019-05-20T11:13:48.205Z,14.60
2019-05-20T11:16:23.782Z,14.60
2019-05-20T11:18:59.155Z,14.60
2019-05-20T11:21:34.566Z,14.60
2019-05-20T11:24:10.065Z,14.70
2019-05-20T11:26:45.571Z,14.70
2019-05-20T11:29:21.131Z,14.80
2019-05-20T11:31:56.608Z,14.80
2019-05-20T11:34:32.208Z,14.80
2019-05-20T11:37:08.918Z,14.80
2019-05-20T11:39:44.401Z,14.70
2019-05-20T11:42:19.889Z,14.70
2019-05-20T11:44:58.137Z,14.80
2019-05-20T11:47:33.629Z,14.80
2019-05-20T11:50:09.808Z,14.80
2019-05-20T11:52:45.259Z,14.80
2019-05-20T11:55:20.705Z,14.90
2019-05-20T11:58:14.011Z,14.90
2019-05-20T12:00:34.308Z,15.00
2019-05-20T12:03:09.902Z,15.10
2019-05-20T12:05:45.432Z,15.10
2019-05-20T12:08:20.970Z,15.10
2019-05-20T12:10:57.245Z,15.00
2019-05-20T12:13:33.430Z,15.00
2019-05-20T12:16:08.899Z,14.90
2019-05-20T12:18:45.235Z,14.70
2019-05-20T12:21:20.769Z,14.70
2019-05-20T12:23:56.326Z,14.70
2019-05-20T12:26:31.747Z,14.60
2019-05-20T12:29:07.519Z,14.70
2019-05-20T12:31:42.941Z,14.70
2019-05-20T12:34:18.582Z,14.80
2019-05-20T12:36:53.961Z,14.70
2019-05-20T12:39:29.487Z,14.70
2019-05-20T12:42:04.924Z,14.80
2019-05-20T12:44:41.405Z,14.80
2019-05-20T12:47:16.937Z,14.70
2019-05-20T12:49:52.712Z,14.80
2019-05-20T12:52:28.134Z,14.70
2019-05-20T12:55:08.551Z,14.80
2019-05-20T12:57:42.314Z,14.80
2019-05-20T13:00:19.619Z,14.70
2019-05-20T13:02:54.987Z,14.70
2019-05-20T13:05:30.505Z,14.80
2019-05-20T13:08:06.307Z,14.80
2019-05-20T13:10:41.751Z,14.80
2019-05-20T13:13:17.124Z,14.90
2019-05-20T13:15:52.567Z,15.00
2019-05-20T13:18:28.032Z,14.90
2019-05-20T13:21:03.996Z,14.90
2019-05-20T13:23:39.511Z,14.90
2019-05-20T13:26:14.940Z,14.90
2019-05-20T13:28:50.314Z,14.90
2019-05-20T13:31:25.758Z,14.90
2019-05-20T13:34:01.248Z,14.80
2019-05-20T13:36:37.902Z,14.70
2019-05-20T13:39:13.306Z,14.60
2019-05-20T13:41:48.884Z,14.60
2019-05-20T13:44:24.411Z,14.60
2019-05-20T13:47:00.037Z,14.60
2019-05-20T13:49:35.592Z,14.60
2019-05-20T13:52:11.486Z,14.60
2019-05-20T13:54:46.945Z,14.60
2019-05-20T13:57:22.509Z,14.60
2019-05-20T13:59:57.938Z,14.70
2019-05-20T14:02:33.453Z,14.60
2019-05-20T14:05:08.995Z,14.70
2019-05-20T14:07:44.799Z,14.70
2019-05-20T14:10:21.800Z,14.70
2019-05-20T14:12:57.242Z,14.60
2019-05-20T14:15:32.789Z,14.60
2019-05-20T14:18:11.281Z,14.60
2019-05-20T14:20:50.589Z,14.60
2019-05-20T14:23:26.787Z,14.60
2019-05-20T14:26:02.370Z,14.60
2019-05-20T14:28:38.081Z,14.70
2019-05-20T14:31:13.961Z,14.80
2019-05-20T14:33:49.480Z,14.80
2019-05-20T14:36:38.462Z,14.80
2019-05-20T14:39:06.450Z,14.80
2019-05-20T14:41:42.228Z,14.80
2019-05-20T14:44:17.562Z,14.80
2019-05-20T14:46:53.046Z,14.80
2019-05-20T14:49:28.568Z,14.80
2019-05-20T14:52:04.123Z,14.70
2019-05-20T14:54:40.201Z,14.60
2019-05-20T14:57:15.651Z,14.60
2019-05-20T14:59:51.802Z,14.60
2019-05-20T15:02:30.737Z,14.60
2019-05-20T15:05:04.622Z,14.50
2019-05-20T15:07:40.203Z,14.50
2019-05-20T15:10:15.904Z,14.40
2019-05-20T15:12:51.416Z,14.40
2019-05-20T15:15:26.867Z,14.50
2019-05-20T15:18:02.311Z,14.40
2019-05-20T15:20:38.015Z,14.40
2019-05-20T15:23:18.044Z,14.40
2019-05-20T15:25:53.766Z,14.40
2019-05-20T15:28:29.120Z,14.30
2019-05-20T15:31:04.544Z,14.40
2019-05-20T15:33:47.231Z,14.40
2019-05-20T15:36:22.742Z,14.50
2019-05-20T15:38:58.160Z,14.50
2019-05-20T15:41:33.544Z,14.50
2019-05-20T15:44:10.085Z,14.40
2019-05-20T15:46:45.489Z,14.40
2019-05-20T15:49:20.930Z,14.50
2019-05-20T15:51:56.348Z,14.50
2019-05-20T15:54:31.674Z,14.50
2019-05-20T15:57:07.223Z,14.60
2019-05-20T15:59:46.114Z,14.50
2019-05-20T16:02:19.701Z,14.40
2019-05-20T16:04:55.058Z,14.40
2019-05-20T16:07:30.561Z,14.30
2019-05-20T16:10:06.667Z,14.40
2019-05-20T16:12:42.296Z,14.40
2019-05-20T16:15:19.123Z,14.30
2019-05-20T16:17:54.565Z,14.30
2019-05-20T16:20:31.152Z,14.30
2019-05-20T16:23:06.748Z,14.20
2019-05-20T16:25:42.171Z,14.20
2019-05-20T16:28:17.637Z,14.20
2019-05-20T16:30:53.119Z,14.20
2019-05-20T16:33:28.618Z,14.20
2019-05-20T16:36:04.580Z,14.20
2019-05-20T16:38:40.205Z,14.20
2019-05-20T16:41:15.621Z,14.20
2019-05-20T16:43:51.265Z,14.30
2019-05-20T16:46:26.688Z,14.30
2019-05-20T16:49:02.114Z,14.30
2019-05-20T16:51:41.552Z,14.20
2019-05-20T16:54:17.063Z,14.20
2019-05-20T16:56:52.644Z,14.20
2019-05-20T16:59:31.022Z,14.20
2019-05-20T17:02:09.112Z,14.20
2019-05-20T17:04:43.897Z,14.30
2019-05-20T17:07:19.344Z,14.30
2019-05-20T17:09:54.960Z,14.30
2019-05-20T17:12:30.805Z,14.30
2019-05-20T17:15:06.863Z,14.30
2019-05-20T17:17:42.363Z,14.30
2019-05-20T17:20:18.109Z,14.20
2019-05-20T17:22:53.570Z,14.20
2019-05-20T17:25:29.475Z,14.20
2019-05-20T17:28:04.811Z,14.10
2019-05-20T17:30:45.558Z,14.20
2019-05-20T17:33:17.441Z,14.10
2019-05-20T17:35:53.309Z,14.10
2019-05-20T17:38:28.764Z,14.10
2019-05-20T17:41:04.452Z,14.10
2019-05-20T17:43:39.883Z,14.00
2019-05-20T17:46:17.613Z,14.00
2019-05-20T17:48:53.128Z,14.10
2019-05-20T17:51:28.683Z,14.00
2019-05-20T17:54:04.190Z,14.00
2019-05-20T17:56:39.710Z,14.00
2019-05-20T17:59:15.056Z,14.00
2019-05-20T18:01:51.543Z,13.90
2019-05-20T18:04:27.084Z,13.90
2019-05-20T18:07:02.586Z,13.90
2019-05-20T18:09:41.629Z,13.90
2019-05-20T18:12:17.207Z,13.90
2019-05-20T18:14:55.335Z,13.90
2019-05-20T18:17:30.809Z,13.80
2019-05-20T18:20:06.470Z,13.80
2019-05-20T18:22:41.991Z,13.80
2019-05-20T18:25:17.403Z,13.80
2019-05-20T18:27:52.840Z,13.80
2019-05-20T18:30:28.281Z,13.80
2019-05-20T18:33:03.723Z,13.80
2019-05-20T18:35:39.135Z,13.80
2019-05-20T18:38:14.663Z,13.80
2019-05-20T18:40:50.058Z,13.70
2019-05-20T18:43:25.771Z,13.70
2019-05-20T18:46:02.416Z,13.80
2019-05-20T18:48:37.967Z,13.70
2019-05-20T18:51:16.873Z,13.70
2019-05-20T18:53:52.398Z,13.70
2019-05-20T18:56:28.035Z,13.60
2019-05-20T18:59:03.527Z,13.60
2019-05-20T19:01:55.847Z,13.60
2019-05-20T19:04:17.186Z,13.60
2019-05-20T19:06:52.771Z,13.50
2019-05-20T19:09:28.352Z,13.60
2019-05-20T19:12:03.999Z,13.50
2019-05-20T19:14:39.428Z,13.50
2019-05-20T19:17:14.872Z,13.50
2019-05-20T19:19:50.534Z,13.40
2019-05-20T19:22:25.969Z,13.40
2019-05-20T19:25:02.899Z,13.40
2019-05-20T19:27:38.693Z,13.40
2019-05-20T19:30:14.348Z,13.40
2019-05-20T19:32:50.832Z,13.30
2019-05-20T19:35:30.848Z,13.30
2019-05-20T19:38:09.524Z,13.30
2019-05-20T19:40:45.118Z,13.30
2019-05-20T19:43:23.473Z,13.30
2019-05-20T19:45:59.130Z,13.30
2019-05-20T19:48:39.767Z,13.20
2019-05-20T19:51:25.354Z,13.20
2019-05-20T19:54:02.101Z,13.30
2019-05-20T19:56:37.828Z,13.20
2019-05-20T19:59:13.228Z,13.20
2019-05-20T20:01:54.756Z,13.20
2019-05-20T20:04:30.089Z,13.20
2019-05-20T20:07:08.723Z,13.20
2019-05-20T20:09:44.225Z,13.20
2019-05-20T20:12:19.867Z,13.10
2019-05-20T20:14:55.255Z,13.10
2019-05-20T20:17:30.850Z,13.10
2019-05-20T20:20:06.430Z,13.10
2019-05-20T20:22:42.022Z,13.10
2019-05-20T20:25:18.511Z,13.00
2019-05-20T20:27:56.250Z,13.10
2019-05-20T20:30:31.656Z,13.10
2019-05-20T20:33:07.947Z,13.10
2019-05-20T20:35:43.432Z,13.10
2019-05-20T20:38:19.256Z,13.10
2019-05-20T20:40:54.770Z,13.10
2019-05-20T20:43:32.252Z,13.10
2019-05-20T20:46:07.648Z,13.10
2019-05-20T20:48:43.254Z,13.10
2019-05-20T20:51:18.654Z,13.10
2019-05-20T20:53:54.096Z,13.20
2019-05-20T20:56:29.475Z,13.20
2019-05-20T20:59:04.998Z,13.10
2019-05-20T21:01:40.448Z,13.10
2019-05-20T21:04:15.862Z,13.10
2019-05-20T21:06:51.201Z,13.10
2019-05-20T21:09:26.703Z,13.00
2019-05-20T21:12:02.192Z,13.10
2019-05-20T21:14:37.635Z,13.10
2019-05-20T21:17:13.153Z,13.10
2019-05-20T21:19:48.589Z,13.10
2019-05-20T21:22:23.967Z,13.10
2019-05-20T21:24:59.437Z,13.10
2019-05-20T21:27:34.784Z,13.10
2019-05-20T21:30:10.564Z,13.10
2019-05-20T21:32:45.950Z,13.00
2019-05-20T21:35:24.357Z,13.00
2019-05-20T21:37:59.777Z,13.10
2019-05-20T21:40:36.287Z,13.00
2019-05-20T21:43:11.657Z,13.10
2019-05-20T21:45:47.082Z,13.10
2019-05-20T21:48:22.488Z,13.00
2019-05-20T21:50:57.913Z,13.00
2019-05-20T21:53:33.345Z,13.00
2019-05-20T21:56:10.324Z,13.00
2019-05-20T21:58:45.678Z,13.00
2019-05-20T22:01:21.157Z,13.00
2019-05-20T22:03:56.618Z,13.00
2019-05-20T22:06:32.188Z,13.00
2019-05-20T22:09:07.832Z,13.00
2019-05-20T22:11:43.480Z,12.90
2019-05-20T22:14:18.817Z,12.90
2019-05-20T22:16:54.247Z,12.80
2019-05-20T22:19:30.704Z,12.90
2019-05-20T22:22:31.049Z,12.80
2019-05-20T22:25:06.776Z,12.80
2019-05-20T22:27:42.235Z,12.70
2019-05-20T22:30:17.651Z,12.80
2019-05-20T22:32:56.742Z,12.70
2019-05-20T22:35:32.310Z,12.70
2019-05-20T22:38:07.714Z,12.70
2019-05-20T22:40:42.995Z,12.60
2019-05-20T22:43:18.530Z,12.60
2019-05-20T22:45:53.903Z,12.60
2019-05-20T22:48:29.219Z,12.60
2019-05-20T22:51:04.721Z,12.60
2019-05-20T22:53:40.248Z,12.60
2019-05-20T22:56:15.680Z,12.60
2019-05-20T22:58:50.986Z,12.60
2019-05-20T23:01:26.423Z,12.60
2019-05-20T23:04:01.991Z,12.60
2019-05-20T23:06:37.433Z,12.60
2019-05-20T23:09:14.907Z,12.60
2019-05-20T23:11:49.925Z,12.60
2019-05-20T23:14:25.572Z,12.50
2019-05-20T23:17:00.930Z,12.50
2019-05-20T23:19:36.351Z,12.50
2019-05-20T23:22:11.738Z,12.50
2019-05-20T23:24:47.241Z,12.40
2019-05-20T23:27:22.596Z,12.40
2019-05-20T23:29:57.996Z,12.40
2019-05-20T23:32:33.277Z,12.40
2019-05-20T23:35:08.772Z,12.40
2019-05-20T23:37:45.722Z,12.30
2019-05-20T23:40:21.199Z,12.40
2019-05-20T23:42:56.570Z,12.40
2019-05-20T23:45:32.023Z,12.40
2019-05-20T23:48:07.589Z,12.30
2019-05-20T23:50:43.053Z,12.30
2019-05-20T23:53:18.427Z,12.30
2019-05-20T23:55:53.867Z,12.30
2019-05-20T23:58:29.265Z,12.30
